createdAt,value
2018-05-10T00:00:37.079Z,100575.78
2018-05-10T00:03:41.182Z,100576.63
2018-05-10T00:06:44.507Z,100571.20
2018-05-10T00:09:47.828Z,100565.75
2018-05-10T00:12:51.136Z,100568.38
2018-05-10T00:15:54.501Z,100568.28
2018-05-10T00:18:57.852Z,100569.10
2018-05-10T00:22:01.338Z,100561.42
2018-05-10T00:25:04.693Z,100557.17
2018-05-10T00:28:08.228Z,100556.78
2018-05-10T00:31:12.528Z,100555.11
2018-05-10T00:34:15.845Z,100547.05
2018-05-10T00:37:19.176Z,100548.53
2018-05-10T00:40:23.249Z,100542.94
2018-05-10T00:43:27.245Z,100539.51
2018-05-10T00:46:30.557Z,100537.14
2018-05-10T00:49:33.884Z,100536.42
2018-05-10T00:52:37.217Z,100531.20
2018-05-10T00:55:40.545Z,100529.29
2018-05-10T00:58:43.866Z,100532.45
2018-05-10T01:01:47.173Z,100533.55
2018-05-10T01:04:50.552Z,100520.62
2018-05-10T01:07:53.865Z,100521.40
2018-05-10T01:10:57.174Z,100524.70
2018-05-10T01:14:01.267Z,100521.24
2018-05-10T01:17:04.574Z,100521.23
2018-05-10T01:20:07.920Z,100524.77
2018-05-10T01:23:11.257Z,100515.45
2018-05-10T01:26:14.570Z,100519.44
2018-05-10T01:29:18.662Z,100515.19
2018-05-10T01:32:21.990Z,100509.55
2018-05-10T01:35:43.905Z,100508.85
2018-05-10T01:38:47.224Z,100512.54
2018-05-10T01:41:51.323Z,100508.02
2018-05-10T01:44:54.638Z,100501.28
2018-05-10T01:47:58.729Z,100500.06
2018-05-10T01:51:02.037Z,100493.31
2018-05-10T01:54:06.124Z,100500.27
2018-05-10T01:57:09.440Z,100490.42
2018-05-10T02:00:12.766Z,100494.42
2018-05-10T02:03:16.088Z,100502.75
2018-05-10T02:06:19.401Z,100501.27
2018-05-10T02:09:22.733Z,100493.89
2018-05-10T02:12:26.820Z,100489.79
2018-05-10T02:15:30.148Z,100486.80
2018-05-10T02:18:34.232Z,100490.06
2018-05-10T02:21:37.565Z,100493.31
2018-05-10T02:24:41.641Z,100488.16
2018-05-10T02:27:44.965Z,100476.80
2018-05-10T02:30:49.047Z,100484.43
2018-05-10T02:33:52.372Z,100482.13
2018-05-10T02:36:55.701Z,100490.17
2018-05-10T02:39:59.026Z,100484.37
2018-05-10T02:43:02.357Z,100478.88
2018-05-10T02:46:05.684Z,100481.16
2018-05-10T02:49:08.993Z,100476.77
2018-05-10T02:52:12.309Z,100478.25
2018-05-10T02:55:15.618Z,100479.28
2018-05-10T02:58:18.938Z,100484.59
2018-05-10T03:01:22.254Z,100485.69
2018-05-10T03:04:26.350Z,100482.65
2018-05-10T03:07:29.681Z,100476.48
2018-05-10T03:10:32.986Z,100472.33
2018-05-10T03:13:36.313Z,100472.05
2018-05-10T03:16:39.645Z,100468.31
2018-05-10T03:19:42.972Z,100473.34
2018-05-10T03:22:46.278Z,100469.19
2018-05-10T03:25:49.614Z,100462.84
2018-05-10T03:28:52.920Z,100463.98
2018-05-10T03:31:56.246Z,100462.46
2018-05-10T03:35:00.323Z,100460.26
2018-05-10T03:38:03.661Z,100467.09
2018-05-10T03:41:07.750Z,100459.88
2018-05-10T03:44:11.076Z,100459.31
2018-05-10T03:47:14.419Z,100456.46
2018-05-10T03:50:17.725Z,100450.26
2018-05-10T03:53:21.075Z,100451.20
2018-05-10T03:56:24.402Z,100455.05
2018-05-10T03:59:27.729Z,100459.55
2018-05-10T04:06:48.953Z,100456.46
2018-05-10T04:10:09.865Z,100456.12
2018-05-10T04:13:13.232Z,100456.45
2018-05-10T04:16:16.538Z,100463.23
2018-05-10T04:19:19.872Z,100460.92
2018-05-10T04:22:23.188Z,100468.84
2018-05-10T04:25:27.324Z,100467.94
2018-05-10T04:28:30.877Z,100458.09
2018-05-10T04:31:35.111Z,100459.57
2018-05-10T04:34:38.457Z,100454.58
2018-05-10T04:37:42.613Z,100445.32
2018-05-10T04:40:45.945Z,100445.88
2018-05-10T04:43:49.484Z,100445.53
2018-05-10T04:46:52.852Z,100446.37
2018-05-10T04:49:56.211Z,100449.94
2018-05-10T04:52:59.520Z,100451.83
2018-05-10T04:56:03.634Z,100453.25
2018-05-10T04:59:07.730Z,100453.98
2018-05-10T05:02:11.062Z,100455.52
2018-05-10T05:05:14.393Z,100451.43
2018-05-10T05:08:17.726Z,100451.91
2018-05-10T05:11:21.046Z,100455.50
2018-05-10T05:14:25.214Z,100448.68
2018-05-10T05:17:28.614Z,100447.95
2018-05-10T05:20:32.031Z,100442.05
2018-05-10T05:23:35.680Z,100441.32
2018-05-10T05:26:39.081Z,100444.91
2018-05-10T05:29:42.555Z,100448.78
2018-05-10T05:32:46.700Z,100443.59
2018-05-10T05:35:49.974Z,100443.80
2018-05-10T05:38:54.009Z,100446.03
2018-05-10T05:41:57.313Z,100451.18
2018-05-10T05:45:00.650Z,100451.66
2018-05-10T05:48:03.969Z,100441.33
2018-05-10T05:51:08.106Z,100442.48
2018-05-10T05:54:11.402Z,100442.91
2018-05-10T05:57:14.721Z,100448.27
2018-05-10T06:00:18.048Z,100452.38
2018-05-10T06:03:21.353Z,100451.05
2018-05-10T06:06:24.677Z,100449.83
2018-05-10T06:09:28.749Z,100443.28
2018-05-10T06:12:32.073Z,100444.92
2018-05-10T06:15:35.454Z,100440.86
2018-05-10T06:18:38.722Z,100442.30
2018-05-10T06:21:42.053Z,100441.77
2018-05-10T06:24:45.391Z,100443.45
2018-05-10T06:27:48.712Z,100448.01
2018-05-10T06:30:52.017Z,100454.16
2018-05-10T06:33:55.375Z,100454.64
2018-05-10T06:36:59.447Z,100451.03
2018-05-10T06:40:02.785Z,100450.69
2018-05-10T06:43:06.101Z,100448.39
2018-05-10T06:46:09.434Z,100443.56
2018-05-10T06:49:12.765Z,100441.91
2018-05-10T06:52:16.833Z,100445.88
2018-05-10T06:55:20.186Z,100449.33
2018-05-10T06:58:23.493Z,100447.91
2018-05-10T07:01:26.826Z,100447.61
2018-05-10T07:04:30.150Z,100443.55
2018-05-10T07:07:33.471Z,100441.69
2018-05-10T07:10:36.777Z,100442.73
2018-05-10T07:13:40.101Z,100440.23
2018-05-10T07:16:43.422Z,100442.76
2018-05-10T07:19:46.750Z,100446.00
2018-05-10T07:22:50.075Z,100448.70
2018-05-10T07:25:53.385Z,100450.73
2018-05-10T07:28:56.705Z,100457.97
2018-05-10T07:32:00.037Z,100463.35
2018-05-10T07:35:04.108Z,100456.75
2018-05-10T07:38:07.430Z,100462.72
2018-05-10T07:41:10.751Z,100457.42
2018-05-10T07:44:14.063Z,100461.10
2018-05-10T07:47:17.435Z,100455.30
2018-05-10T07:50:20.729Z,100451.75
2018-05-10T07:53:24.817Z,100456.17
2018-05-10T07:56:28.121Z,100463.31
2018-05-10T07:59:31.442Z,100462.65
2018-05-10T08:02:35.529Z,100470.08
2018-05-10T08:05:38.829Z,100471.46
2018-05-10T08:08:42.147Z,100467.74
2018-05-10T08:11:45.494Z,100470.63
2018-05-10T08:14:48.792Z,100463.77
2018-05-10T08:17:52.106Z,100474.25
2018-05-10T08:20:55.410Z,100470.79
2018-05-10T08:23:58.732Z,100477.93
2018-05-10T08:27:02.817Z,100478.31
2018-05-10T08:30:06.129Z,100475.80
2018-05-10T08:33:09.449Z,100472.97
2018-05-10T08:36:12.769Z,100480.45
2018-05-10T08:39:16.074Z,100476.27
2018-05-10T08:42:19.397Z,100471.14
2018-05-10T08:45:22.693Z,100470.30
2018-05-10T08:48:26.015Z,100477.44
2018-05-10T08:51:30.191Z,100476.23
2018-05-10T08:54:33.437Z,100474.77
2018-05-10T08:57:37.524Z,100475.77
2018-05-10T09:00:40.845Z,100471.38
2018-05-10T09:03:44.961Z,100470.00
2018-05-10T09:06:49.033Z,100475.94
2018-05-10T09:09:52.352Z,100465.29
2018-05-10T09:12:55.675Z,100466.54
2018-05-10T09:15:58.991Z,100476.61
2018-05-10T09:19:02.309Z,100473.67
2018-05-10T09:22:05.614Z,100472.22
2018-05-10T09:25:08.929Z,100473.27
2018-05-10T09:28:12.242Z,100470.58
2018-05-10T09:31:16.329Z,100472.83
2018-05-10T09:34:19.661Z,100469.05
2018-05-10T09:37:23.729Z,100462.11
2018-05-10T09:40:27.058Z,100464.68
2018-05-10T09:43:30.365Z,100468.47
2018-05-10T09:46:34.449Z,100463.68
2018-05-10T09:49:37.769Z,100460.59
2018-05-10T09:52:41.862Z,100458.67
2018-05-10T09:55:45.173Z,100458.27
2018-05-10T09:58:48.496Z,100457.06
2018-05-10T10:01:51.801Z,100470.41
2018-05-10T10:04:55.125Z,100469.84
2018-05-10T10:07:58.461Z,100472.83
2018-05-10T10:11:01.855Z,100469.05
2018-05-10T10:14:05.101Z,100476.24
2018-05-10T10:17:08.477Z,100478.14
2018-05-10T10:20:11.734Z,100473.75
2018-05-10T10:23:15.038Z,100472.04
2018-05-10T10:26:18.358Z,100470.13
2018-05-10T10:29:22.450Z,100460.52
2018-05-10T10:32:25.867Z,100454.93
2018-05-10T10:35:29.119Z,100455.78
2018-05-10T10:38:32.438Z,100448.81
2018-05-10T10:41:35.757Z,100450.52
2018-05-10T10:44:39.845Z,100449.64
2018-05-10T10:47:43.164Z,100456.33
2018-05-10T10:50:47.365Z,100449.12
2018-05-10T10:53:50.778Z,100455.14
2018-05-10T10:56:54.009Z,100447.05
2018-05-10T10:59:57.437Z,100458.19
2018-05-10T11:03:00.648Z,100454.77
2018-05-10T11:06:03.970Z,100449.30
2018-05-10T11:09:08.164Z,100454.02
2018-05-10T11:12:11.381Z,100457.60
2018-05-10T11:15:15.477Z,100467.41
2018-05-10T11:18:18.801Z,100463.66
2018-05-10T11:21:22.122Z,100468.06
2018-05-10T11:24:25.429Z,100465.39
2018-05-10T11:27:28.750Z,100468.25
2018-05-10T11:30:32.057Z,100466.45
2018-05-10T11:33:35.378Z,100475.92
2018-05-10T11:36:39.449Z,100465.94
2018-05-10T11:39:42.769Z,100460.59
2018-05-10T11:42:46.870Z,100459.22
2018-05-10T11:45:50.178Z,100467.33
2018-05-10T11:48:53.503Z,100477.27
2018-05-10T11:51:56.823Z,100487.52
2018-05-10T11:55:00.121Z,100493.18
2018-05-10T11:58:03.445Z,100495.60
2018-05-10T12:01:06.773Z,100487.66
2018-05-10T12:04:10.838Z,100478.27
2018-05-10T12:07:14.159Z,100483.42
2018-05-10T12:10:17.461Z,100492.46
2018-05-10T12:13:20.783Z,100500.25
2018-05-10T12:16:24.873Z,100512.17
2018-05-10T12:19:28.194Z,100518.30
2018-05-10T12:22:32.302Z,100515.43
2018-05-10T12:25:36.426Z,100522.19
2018-05-10T12:28:39.697Z,100519.47
2018-05-10T12:31:43.006Z,100536.50
2018-05-10T12:34:47.097Z,100540.08
2018-05-10T12:37:50.405Z,100528.37
2018-05-10T12:40:53.732Z,100547.09
2018-05-10T12:43:57.044Z,100553.47
2018-05-10T12:47:00.369Z,100563.05
2018-05-10T12:50:03.697Z,100563.45
2018-05-10T12:53:07.005Z,100558.26
2018-05-10T12:56:11.147Z,100576.80
2018-05-10T12:59:14.425Z,100587.99
2018-05-10T13:02:18.512Z,100589.67
2018-05-10T13:05:21.817Z,100600.39
2018-05-10T13:08:25.185Z,100619.05
2018-05-10T13:11:28.469Z,100619.02
2018-05-10T13:14:31.794Z,100629.04
2018-05-10T13:17:35.096Z,100630.63
2018-05-10T13:20:38.429Z,100646.19
2018-05-10T13:23:41.757Z,100641.95
2018-05-10T13:26:45.093Z,100645.20
2018-05-10T13:29:48.397Z,100644.53
2018-05-10T13:32:52.481Z,100638.25
2018-05-10T13:35:55.802Z,100633.94
2018-05-10T13:38:59.880Z,100640.70
2018-05-10T13:42:03.205Z,100650.63
2018-05-10T13:45:06.529Z,100653.18
2018-05-10T13:48:10.602Z,100651.40
2018-05-10T13:51:13.933Z,100658.38
2018-05-10T13:54:18.008Z,100676.22
2018-05-10T13:57:21.338Z,100686.14
2018-05-10T14:00:25.410Z,100672.13
2018-05-10T14:03:28.728Z,100672.95
2018-05-10T14:06:32.035Z,100676.03
2018-05-10T14:09:35.365Z,100695.70
2018-05-10T14:12:38.703Z,100698.39
2018-05-10T14:15:42.025Z,100715.39
2018-05-10T14:18:45.351Z,100722.47
2018-05-10T14:21:48.673Z,100726.20
2018-05-10T14:24:51.993Z,100732.20
2018-05-10T14:27:55.314Z,100741.66
2018-05-10T14:30:58.641Z,100753.81
2018-05-10T14:34:01.965Z,100754.41
2018-05-10T14:37:05.321Z,100737.09
2018-05-10T14:40:08.621Z,100726.23
2018-05-10T14:43:11.941Z,100717.31
2018-05-10T14:46:15.269Z,100704.11
2018-05-10T14:49:18.600Z,100712.39
2018-05-10T14:52:22.674Z,100712.53
2018-05-10T14:55:25.993Z,100719.37
2018-05-10T14:58:29.313Z,100732.45
2018-05-10T15:01:33.405Z,100753.50
2018-05-10T15:04:36.709Z,100752.25
2018-05-10T15:07:40.029Z,100752.81
2018-05-10T15:10:44.102Z,100764.91
2018-05-10T15:13:47.425Z,100781.41
2018-05-10T15:16:51.513Z,100800.55
2018-05-10T15:19:54.834Z,100805.48
2018-05-10T15:22:58.909Z,100806.99
2018-05-10T15:26:02.241Z,100823.25
2018-05-10T15:29:06.322Z,100830.96
2018-05-10T15:32:09.657Z,100855.55
2018-05-10T15:35:13.729Z,100863.67
2018-05-10T15:38:17.098Z,100883.03
2018-05-10T15:41:20.408Z,100890.84
2018-05-10T15:44:23.729Z,100890.56
2018-05-10T15:47:27.053Z,100890.09
2018-05-10T15:50:30.381Z,100894.22
2018-05-10T15:53:33.688Z,100915.13
2018-05-10T15:56:37.009Z,100917.17
2018-05-10T15:59:40.357Z,100925.27
2018-05-10T16:02:44.430Z,100922.64
2018-05-10T16:05:47.753Z,100917.41
2018-05-10T16:08:51.760Z,100915.61
2018-05-10T16:11:55.072Z,100918.75
2018-05-10T16:14:59.161Z,100926.42
2018-05-10T16:18:03.014Z,100931.11
2018-05-10T16:21:06.333Z,100926.16
2018-05-10T16:24:10.415Z,100935.09
2018-05-10T16:27:14.514Z,100935.09
2018-05-10T16:30:17.865Z,100934.36
2018-05-10T16:33:21.177Z,100936.23
2018-05-10T16:36:24.497Z,100942.95
2018-05-10T16:39:27.895Z,100957.83
2018-05-10T16:42:31.905Z,100966.17
2018-05-10T16:45:35.213Z,100982.50
2018-05-10T16:48:39.303Z,101000.52
2018-05-10T16:51:42.634Z,101004.31
2018-05-10T16:54:46.723Z,101014.80
2018-05-10T16:57:50.030Z,101020.80
2018-05-10T17:00:53.378Z,101026.33
2018-05-10T17:03:56.694Z,101039.48
2018-05-10T17:07:01.081Z,101051.64
2018-05-10T17:10:04.649Z,101054.84
2018-05-10T17:13:07.973Z,101055.42
2018-05-10T17:16:11.314Z,101059.95
2018-05-10T17:19:14.622Z,101075.23
2018-05-10T17:22:17.950Z,101083.89
2018-05-10T17:25:22.021Z,101083.08
2018-05-10T17:28:26.041Z,101085.08
2018-05-10T17:31:30.273Z,101089.50
2018-05-10T17:34:33.616Z,101102.48
2018-05-10T17:37:36.913Z,101106.22
2018-05-10T17:40:40.237Z,101121.98
2018-05-10T17:43:43.569Z,101132.00
2018-05-10T17:46:46.897Z,101140.38
2018-05-10T17:49:50.201Z,101140.62
2018-05-10T17:52:53.516Z,101146.66
2018-05-10T17:55:56.833Z,101151.96
2018-05-10T17:59:00.154Z,101168.15
2018-05-10T18:02:04.246Z,101167.23
2018-05-10T18:05:07.547Z,101173.97
2018-05-10T18:08:10.869Z,101187.81
2018-05-10T18:11:14.189Z,101193.27
2018-05-10T18:14:17.505Z,101194.78
2018-05-10T18:17:20.829Z,101199.81
2018-05-10T18:20:24.133Z,101198.75
2018-05-10T18:23:27.512Z,101200.79
2018-05-10T18:26:30.766Z,101214.79
2018-05-10T18:29:34.090Z,101218.08
2018-05-10T18:32:37.419Z,101229.74
2018-05-10T18:35:40.746Z,101242.25
2018-05-10T18:38:44.841Z,101248.20
2018-05-10T18:41:48.157Z,101257.13
2018-05-10T18:44:52.245Z,101262.53
2018-05-10T18:47:55.554Z,101271.17
2018-05-10T18:50:59.645Z,101284.02
2018-05-10T18:54:02.961Z,101289.59
2018-05-10T18:57:06.289Z,101302.19
2018-05-10T19:00:09.597Z,101316.77
2018-05-10T19:03:12.939Z,101313.67
2018-05-10T19:06:16.254Z,101324.42
2018-05-10T19:09:20.346Z,101341.13
2018-05-10T19:12:23.653Z,101345.28
2018-05-10T19:15:27.053Z,101352.38
2018-05-10T19:18:30.322Z,101367.69
2018-05-10T19:21:33.637Z,101373.26
2018-05-10T19:24:36.971Z,101383.00
2018-05-10T19:27:40.329Z,101385.95
2018-05-10T19:30:43.653Z,101393.05
2018-05-10T19:33:47.745Z,101391.22
2018-05-10T19:36:51.152Z,101381.52
2018-05-10T19:39:54.392Z,101385.47
2018-05-10T19:42:57.718Z,101387.81
2018-05-10T19:46:01.040Z,101389.54
2018-05-10T19:49:04.365Z,101390.75
2018-05-10T19:52:07.686Z,101378.97
2018-05-10T19:55:10.991Z,101383.94
2018-05-10T19:58:14.319Z,101389.64
2018-05-10T20:01:17.627Z,101400.80
2018-05-10T20:04:21.717Z,101405.02
2018-05-10T20:07:25.045Z,101400.67
2018-05-10T20:10:29.109Z,101414.26
2018-05-10T20:13:32.429Z,101407.53
2018-05-10T20:16:35.754Z,101404.05
2018-05-10T20:19:39.825Z,101404.09
2018-05-10T20:22:43.149Z,101401.62
2018-05-10T20:25:46.469Z,101407.88
2018-05-10T20:28:50.537Z,101412.23
2018-05-10T20:31:53.858Z,101424.70
2018-05-10T20:34:57.172Z,101427.00
2018-05-10T20:38:01.265Z,101434.78
2018-05-10T20:41:05.349Z,101445.36
2018-05-10T20:44:08.689Z,101451.55
2018-05-10T20:47:12.756Z,101453.14
2018-05-10T20:50:16.073Z,101453.39
2018-05-10T20:53:19.374Z,101459.78
2018-05-10T20:56:22.693Z,101463.16
2018-05-10T20:59:26.770Z,101462.84
2018-05-10T21:02:30.081Z,101460.20
2018-05-10T21:05:33.400Z,101464.95
2018-05-10T21:08:37.499Z,101473.80
2018-05-10T21:11:40.825Z,101469.95
2018-05-10T21:14:44.889Z,101471.84
2018-05-10T21:17:48.214Z,101476.14
2018-05-10T21:20:51.518Z,101469.67
2018-05-10T21:23:55.616Z,101471.98
2018-05-10T21:26:58.918Z,101483.08
2018-05-10T21:30:02.237Z,101501.30
2018-05-10T21:33:06.317Z,101502.09
2018-05-10T21:36:09.633Z,101512.17
2018-05-10T21:39:12.951Z,101516.36
2018-05-10T21:42:16.286Z,101520.03
2018-05-10T21:45:19.590Z,101521.70
2018-05-10T21:48:22.909Z,101520.86
2018-05-10T21:51:26.238Z,101515.45
2018-05-10T21:54:29.542Z,101511.56
2018-05-10T21:57:32.865Z,101504.55
2018-05-10T22:00:36.234Z,101505.39
2018-05-10T22:03:39.561Z,101511.09
2018-05-10T22:06:42.939Z,101523.47
2018-05-10T22:09:46.197Z,101529.48
2018-05-10T22:12:49.527Z,101539.66
2018-05-10T22:15:52.852Z,101553.36
2018-05-10T22:18:56.161Z,101554.66
2018-05-10T22:21:59.477Z,101549.09
2018-05-10T22:25:02.805Z,101547.43
2018-05-10T22:28:06.138Z,101530.88
2018-05-10T22:31:09.458Z,101531.50
2018-05-10T22:34:12.761Z,101544.52
2018-05-10T22:37:16.104Z,101544.30
2018-05-10T22:40:19.408Z,101552.03
2018-05-10T22:43:22.726Z,101556.42
2018-05-10T22:46:26.047Z,101569.05
2018-05-10T22:49:29.353Z,101580.59
2018-05-10T22:52:32.677Z,101582.59
2018-05-10T22:55:35.980Z,101581.81
2018-05-10T22:58:39.301Z,101582.66
2018-05-10T23:01:42.609Z,101584.78
2018-05-10T23:04:45.938Z,101591.61
2018-05-10T23:07:50.009Z,101596.33
2018-05-10T23:10:53.333Z,101597.48
2018-05-10T23:13:56.637Z,101599.49
2018-05-10T23:16:59.963Z,101607.97
2018-05-10T23:20:03.291Z,101614.35
2018-05-10T23:23:06.593Z,101616.07
2018-05-10T23:26:09.913Z,101620.03
2018-05-10T23:29:13.246Z,101625.82
2018-05-10T23:32:17.309Z,101635.45
2018-05-10T23:35:20.633Z,101640.38
2018-05-10T23:38:23.945Z,101642.89
2018-05-10T23:41:28.057Z,101639.32
2018-05-10T23:44:31.364Z,101646.78
2018-05-10T23:47:35.452Z,101640.05
2018-05-10T23:50:38.776Z,101641.03
2018-05-10T23:53:42.077Z,101642.61
2018-05-10T23:56:45.405Z,101651.18
2018-05-10T23:59:48.733Z,101645.00
